sensor_id;sensor_type;location;lat;lon;timestamp;temperature;humidity
62583;DHT22;48641;51.676;5.808;2022-08-20T00:00:34;24.70;61.20
62583;DHT22;48641;51.676;5.808;2022-08-20T00:03:28;24.70;61.20
62583;DHT22;48641;51.676;5.808;2022-08-20T00:08:29;24.70;61.30
62583;DHT22;48641;51.676;5.808;2022-08-20T00:10:56;24.70;61.20
62583;DHT22;48641;51.676;5.808;2022-08-20T00:13:28;24.70;61.00
62583;DHT22;48641;51.676;5.808;2022-08-20T00:15:54;24.70;61.00
62583;DHT22;48641;51.676;5.808;2022-08-20T00:18:21;24.70;61.00
62583;DHT22;48641;51.676;5.808;2022-08-20T00:20:50;24.70;61.00
62583;DHT22;48641;51.676;5.808;2022-08-20T00:23:17;24.70;61.10
62583;DHT22;48641;51.676;5.808;2022-08-20T00:25:43;24.70;61.20
62583;DHT22;48641;51.676;5.808;2022-08-20T00:28:09;24.70;61.20
62583;DHT22;48641;51.676;5.808;2022-08-20T00:30:36;24.70;61.30
62583;DHT22;48641;51.676;5.808;2022-08-20T00:33:09;24.70;61.70
62583;DHT22;48641;51.676;5.808;2022-08-20T00:35:40;24.70;61.30
62583;DHT22;48641;51.676;5.808;2022-08-20T00:38:06;24.70;61.30
62583;DHT22;48641;51.676;5.808;2022-08-20T00:40:39;24.60;61.00
62583;DHT22;48641;51.676;5.808;2022-08-20T00:43:12;24.60;61.00
62583;DHT22;48641;51.676;5.808;2022-08-20T00:45:48;24.60;61.00
62583;DHT22;48641;51.676;5.808;2022-08-20T00:48:15;24.60;61.00
62583;DHT22;48641;51.676;5.808;2022-08-20T00:50:40;24.60;60.90
62583;DHT22;48641;51.676;5.808;2022-08-20T00:53:07;24.60;61.10
62583;DHT22;48641;51.676;5.808;2022-08-20T00:55:33;24.60;61.20
62583;DHT22;48641;51.676;5.808;2022-08-20T00:58:03;24.60;61.20
62583;DHT22;48641;51.676;5.808;2022-08-20T01:00:37;24.60;61.20
62583;DHT22;48641;51.676;5.808;2022-08-20T01:03:06;24.60;61.20
62583;DHT22;48641;51.676;5.808;2022-08-20T01:05:35;24.60;61.30
62583;DHT22;48641;51.676;5.808;2022-08-20T01:08:01;24.60;61.30
62583;DHT22;48641;51.676;5.808;2022-08-20T01:10:31;24.60;61.40
62583;DHT22;48641;51.676;5.808;2022-08-20T01:12:59;24.60;61.40
62583;DHT22;48641;51.676;5.808;2022-08-20T01:15:28;24.50;61.20
62583;DHT22;48641;51.676;5.808;2022-08-20T01:17:57;24.50;61.00
62583;DHT22;48641;51.676;5.808;2022-08-20T01:20:59;24.50;61.10
62583;DHT22;48641;51.676;5.808;2022-08-20T01:23:50;24.60;61.00
62583;DHT22;48641;51.676;5.808;2022-08-20T01:26:29;24.50;60.90
62583;DHT22;48641;51.676;5.808;2022-08-20T01:28:59;24.50;61.20
62583;DHT22;48641;51.676;5.808;2022-08-20T01:31:28;24.50;61.30
62583;DHT22;48641;51.676;5.808;2022-08-20T01:33:57;24.50;61.30
62583;DHT22;48641;51.676;5.808;2022-08-20T01:36:44;24.50;61.30
62583;DHT22;48641;51.676;5.808;2022-08-20T01:39:12;24.50;61.40
62583;DHT22;48641;51.676;5.808;2022-08-20T01:44:18;24.50;61.40
62583;DHT22;48641;51.676;5.808;2022-08-20T01:46:46;24.50;61.50
62583;DHT22;48641;51.676;5.808;2022-08-20T01:49:30;24.50;61.20
62583;DHT22;48641;51.676;5.808;2022-08-20T01:52:01;24.50;61.10
62583;DHT22;48641;51.676;5.808;2022-08-20T01:54:31;24.50;61.30
62583;DHT22;48641;51.676;5.808;2022-08-20T01:57:04;24.50;61.30
62583;DHT22;48641;51.676;5.808;2022-08-20T01:59:29;24.50;61.10
62583;DHT22;48641;51.676;5.808;2022-08-20T02:01:56;24.50;61.10
62583;DHT22;48641;51.676;5.808;2022-08-20T02:04:22;24.50;61.10
62583;DHT22;48641;51.676;5.808;2022-08-20T02:06:52;24.50;62.20
62583;DHT22;48641;51.676;5.808;2022-08-20T02:09:20;24.50;61.20
62583;DHT22;48641;51.676;5.808;2022-08-20T02:11:46;24.50;61.30
62583;DHT22;48641;51.676;5.808;2022-08-20T02:14:12;24.50;61.30
62583;DHT22;48641;51.676;5.808;2022-08-20T02:16:41;24.50;61.30
62583;DHT22;48641;51.676;5.808;2022-08-20T02:19:32;24.50;61.30
62583;DHT22;48641;51.676;5.808;2022-08-20T02:22:01;24.50;61.10
62583;DHT22;48641;51.676;5.808;2022-08-20T02:24:27;24.50;61.00
62583;DHT22;48641;51.676;5.808;2022-08-20T02:26:54;24.40;61.20
62583;DHT22;48641;51.676;5.808;2022-08-20T02:29:20;24.40;61.20
62583;DHT22;48641;51.676;5.808;2022-08-20T02:31:46;24.40;61.20
62583;DHT22;48641;51.676;5.808;2022-08-20T02:34:13;24.40;61.00
62583;DHT22;48641;51.676;5.808;2022-08-20T02:36:40;24.40;61.20
62583;DHT22;48641;51.676;5.808;2022-08-20T02:39:09;24.40;61.00
62583;DHT22;48641;51.676;5.808;2022-08-20T02:41:36;24.50;61.10
62583;DHT22;48641;51.676;5.808;2022-08-20T02:44:04;24.50;61.20
62583;DHT22;48641;51.676;5.808;2022-08-20T02:46:30;24.40;61.20
62583;DHT22;48641;51.676;5.808;2022-08-20T02:48:56;24.40;61.40
62583;DHT22;48641;51.676;5.808;2022-08-20T02:51:22;24.40;61.40
62583;DHT22;48641;51.676;5.808;2022-08-20T02:53:48;24.40;61.40
62583;DHT22;48641;51.676;5.808;2022-08-20T02:56:14;24.40;61.20
62583;DHT22;48641;51.676;5.808;2022-08-20T02:58:40;24.40;61.10
62583;DHT22;48641;51.676;5.808;2022-08-20T03:01:09;24.40;61.00
62583;DHT22;48641;51.676;5.808;2022-08-20T03:03:37;24.40;60.90
62583;DHT22;48641;51.676;5.808;2022-08-20T03:06:04;24.40;61.00
62583;DHT22;48641;51.676;5.808;2022-08-20T03:08:30;24.40;61.20
62583;DHT22;48641;51.676;5.808;2022-08-20T03:10:56;24.40;61.00
62583;DHT22;48641;51.676;5.808;2022-08-20T03:13:22;24.40;61.20
62583;DHT22;48641;51.676;5.808;2022-08-20T03:15:52;24.40;61.20
62583;DHT22;48641;51.676;5.808;2022-08-20T03:18:19;24.50;61.30
62583;DHT22;48641;51.676;5.808;2022-08-20T03:20:46;24.40;61.40
62583;DHT22;48641;51.676;5.808;2022-08-20T03:23:12;24.40;61.40
62583;DHT22;48641;51.676;5.808;2022-08-20T03:25:38;24.40;61.40
62583;DHT22;48641;51.676;5.808;2022-08-20T03:28:04;24.40;61.40
62583;DHT22;48641;51.676;5.808;2022-08-20T03:30:30;24.40;61.40
62583;DHT22;48641;51.676;5.808;2022-08-20T03:32:56;24.40;61.30
62583;DHT22;48641;51.676;5.808;2022-08-20T03:35:24;24.40;61.20
62583;DHT22;48641;51.676;5.808;2022-08-20T03:37:50;24.40;61.30
62583;DHT22;48641;51.676;5.808;2022-08-20T03:40:20;24.40;61.20
62583;DHT22;48641;51.676;5.808;2022-08-20T03:42:45;24.40;62.10
62583;DHT22;48641;51.676;5.808;2022-08-20T03:45:12;24.40;60.90
62583;DHT22;48641;51.676;5.808;2022-08-20T03:47:39;24.40;61.00
62583;DHT22;48641;51.676;5.808;2022-08-20T03:50:06;24.40;61.20
62583;DHT22;48641;51.676;5.808;2022-08-20T03:52:32;24.40;61.20
62583;DHT22;48641;51.676;5.808;2022-08-20T03:54:57;24.40;61.20
62583;DHT22;48641;51.676;5.808;2022-08-20T03:57:23;24.40;61.00
62583;DHT22;48641;51.676;5.808;2022-08-20T03:59:50;24.30;61.30
62583;DHT22;48641;51.676;5.808;2022-08-20T04:02:16;24.30;61.30
62583;DHT22;48641;51.676;5.808;2022-08-20T04:04:42;24.30;61.40
62583;DHT22;48641;51.676;5.808;2022-08-20T04:07:10;24.30;61.20
62583;DHT22;48641;51.676;5.808;2022-08-20T04:09:37;24.30;61.30
62583;DHT22;48641;51.676;5.808;2022-08-20T04:12:04;24.30;61.30
62583;DHT22;48641;51.676;5.808;2022-08-20T04:14:30;24.30;61.40
62583;DHT22;48641;51.676;5.808;2022-08-20T04:16:56;24.30;61.30
62583;DHT22;48641;51.676;5.808;2022-08-20T04:19:21;24.30;61.30
62583;DHT22;48641;51.676;5.808;2022-08-20T04:21:47;24.30;61.30
62583;DHT22;48641;51.676;5.808;2022-08-20T04:24:13;24.30;61.30
62583;DHT22;48641;51.676;5.808;2022-08-20T04:26:40;24.30;61.40
62583;DHT22;48641;51.676;5.808;2022-08-20T04:29:06;24.30;61.50
62583;DHT22;48641;51.676;5.808;2022-08-20T04:31:32;24.30;61.60
62583;DHT22;48641;51.676;5.808;2022-08-20T04:34:02;24.30;61.50
62583;DHT22;48641;51.676;5.808;2022-08-20T04:36:28;24.30;61.60
62583;DHT22;48641;51.676;5.808;2022-08-20T04:38:53;24.30;61.50
62583;DHT22;48641;51.676;5.808;2022-08-20T04:41:21;24.30;61.50
62583;DHT22;48641;51.676;5.808;2022-08-20T04:43:46;24.30;61.50
62583;DHT22;48641;51.676;5.808;2022-08-20T04:46:12;24.30;61.40
62583;DHT22;48641;51.676;5.808;2022-08-20T04:48:39;24.30;61.40
62583;DHT22;48641;51.676;5.808;2022-08-20T04:51:07;24.30;61.40
62583;DHT22;48641;51.676;5.808;2022-08-20T04:53:33;24.30;61.30
62583;DHT22;48641;51.676;5.808;2022-08-20T04:56:00;24.30;60.90
62583;DHT22;48641;51.676;5.808;2022-08-20T04:58:27;24.30;61.10
62583;DHT22;48641;51.676;5.808;2022-08-20T05:00:56;24.30;61.20
62583;DHT22;48641;51.676;5.808;2022-08-20T05:03:23;24.30;61.20
62583;DHT22;48641;51.676;5.808;2022-08-20T05:05:49;24.20;61.30
62583;DHT22;48641;51.676;5.808;2022-08-20T05:08:16;24.20;61.30
62583;DHT22;48641;51.676;5.808;2022-08-20T05:10:43;24.30;61.50
62583;DHT22;48641;51.676;5.808;2022-08-20T05:13:09;24.30;61.50
62583;DHT22;48641;51.676;5.808;2022-08-20T05:15:36;24.30;61.50
62583;DHT22;48641;51.676;5.808;2022-08-20T05:18:03;24.20;62.40
62583;DHT22;48641;51.676;5.808;2022-08-20T05:20:31;24.20;61.30
62583;DHT22;48641;51.676;5.808;2022-08-20T05:22:59;24.20;61.40
62583;DHT22;48641;51.676;5.808;2022-08-20T05:25:26;24.30;61.60
62583;DHT22;48641;51.676;5.808;2022-08-20T05:27:56;24.20;61.50
62583;DHT22;48641;51.676;5.808;2022-08-20T05:30:25;24.20;61.40
62583;DHT22;48641;51.676;5.808;2022-08-20T05:32:51;24.20;61.40
62583;DHT22;48641;51.676;5.808;2022-08-20T05:35:17;24.20;61.40
62583;DHT22;48641;51.676;5.808;2022-08-20T05:37:42;24.20;61.30
62583;DHT22;48641;51.676;5.808;2022-08-20T05:40:12;24.20;61.50
62583;DHT22;48641;51.676;5.808;2022-08-20T05:42:39;24.20;61.40
62583;DHT22;48641;51.676;5.808;2022-08-20T05:45:06;24.30;61.70
62583;DHT22;48641;51.676;5.808;2022-08-20T05:47:32;24.20;61.70
62583;DHT22;48641;51.676;5.808;2022-08-20T05:49:58;24.20;61.60
62583;DHT22;48641;51.676;5.808;2022-08-20T05:52:23;24.20;61.50
62583;DHT22;48641;51.676;5.808;2022-08-20T05:54:49;24.20;61.40
62583;DHT22;48641;51.676;5.808;2022-08-20T05:57:18;24.20;61.60
62583;DHT22;48641;51.676;5.808;2022-08-20T05:59:44;24.20;61.50
62583;DHT22;48641;51.676;5.808;2022-08-20T06:02:10;24.20;61.50
62583;DHT22;48641;51.676;5.808;2022-08-20T06:04:54;24.20;61.40
62583;DHT22;48641;51.676;5.808;2022-08-20T06:07:19;24.20;61.50
62583;DHT22;48641;51.676;5.808;2022-08-20T06:09:45;24.20;61.50
62583;DHT22;48641;51.676;5.808;2022-08-20T06:12:11;24.20;61.40
62583;DHT22;48641;51.676;5.808;2022-08-20T06:14:36;24.20;61.50
62583;DHT22;48641;51.676;5.808;2022-08-20T06:17:10;24.20;61.20
62583;DHT22;48641;51.676;5.808;2022-08-20T06:19:37;24.20;61.20
62583;DHT22;48641;51.676;5.808;2022-08-20T06:22:05;24.20;61.50
62583;DHT22;48641;51.676;5.808;2022-08-20T06:24:31;24.20;61.50
62583;DHT22;48641;51.676;5.808;2022-08-20T06:26:58;24.20;61.70
62583;DHT22;48641;51.676;5.808;2022-08-20T06:29:25;24.20;61.90
62583;DHT22;48641;51.676;5.808;2022-08-20T06:31:50;24.20;61.90
62583;DHT22;48641;51.676;5.808;2022-08-20T06:34:16;24.20;61.90
62583;DHT22;48641;51.676;5.808;2022-08-20T06:36:43;24.20;61.80
62583;DHT22;48641;51.676;5.808;2022-08-20T06:39:12;24.20;61.70
62583;DHT22;48641;51.676;5.808;2022-08-20T06:41:38;24.20;62.00
62583;DHT22;48641;51.676;5.808;2022-08-20T06:44:04;24.20;62.00
62583;DHT22;48641;51.676;5.808;2022-08-20T06:46:30;24.20;62.20
62583;DHT22;48641;51.676;5.808;2022-08-20T06:48:56;24.20;62.40
62583;DHT22;48641;51.676;5.808;2022-08-20T06:51:22;24.20;62.30
62583;DHT22;48641;51.676;5.808;2022-08-20T06:53:47;24.20;62.20
62583;DHT22;48641;51.676;5.808;2022-08-20T06:56:13;24.20;62.50
62583;DHT22;48641;51.676;5.808;2022-08-20T06:58:39;24.20;62.40
62583;DHT22;48641;51.676;5.808;2022-08-20T07:01:06;24.20;62.60
62583;DHT22;48641;51.676;5.808;2022-08-20T07:03:31;24.10;62.70
62583;DHT22;48641;51.676;5.808;2022-08-20T07:05:57;24.10;62.50
62583;DHT22;48641;51.676;5.808;2022-08-20T07:08:23;24.10;62.50
62583;DHT22;48641;51.676;5.808;2022-08-20T07:10:50;24.10;62.50
62583;DHT22;48641;51.676;5.808;2022-08-20T07:13:15;24.10;62.70
62583;DHT22;48641;51.676;5.808;2022-08-20T07:15:43;24.10;62.90
62583;DHT22;48641;51.676;5.808;2022-08-20T07:18:10;24.20;62.80
62583;DHT22;48641;51.676;5.808;2022-08-20T07:20:37;24.20;62.60
62583;DHT22;48641;51.676;5.808;2022-08-20T07:23:03;24.20;62.40
62583;DHT22;48641;51.676;5.808;2022-08-20T07:25:29;24.10;62.50
62583;DHT22;48641;51.676;5.808;2022-08-20T07:28:11;24.10;62.80
62583;DHT22;48641;51.676;5.808;2022-08-20T07:30:37;24.20;63.90
62583;DHT22;48641;51.676;5.808;2022-08-20T07:33:21;24.10;62.90
62583;DHT22;48641;51.676;5.808;2022-08-20T07:35:47;24.10;63.10
62583;DHT22;48641;51.676;5.808;2022-08-20T07:38:16;24.10;63.00
62583;DHT22;48641;51.676;5.808;2022-08-20T07:40:52;24.10;62.90
62583;DHT22;48641;51.676;5.808;2022-08-20T07:43:19;24.10;63.10
62583;DHT22;48641;51.676;5.808;2022-08-20T07:45:48;24.10;63.20
62583;DHT22;48641;51.676;5.808;2022-08-20T07:48:14;24.10;63.10
62583;DHT22;48641;51.676;5.808;2022-08-20T07:50:40;24.10;62.70
62583;DHT22;48641;51.676;5.808;2022-08-20T07:53:06;24.10;63.00
62583;DHT22;48641;51.676;5.808;2022-08-20T07:55:32;24.10;63.80
62583;DHT22;48641;51.676;5.808;2022-08-20T07:58:06;24.10;62.90
62583;DHT22;48641;51.676;5.808;2022-08-20T08:00:32;24.20;63.20
62583;DHT22;48641;51.676;5.808;2022-08-20T08:02:58;24.20;63.30
62583;DHT22;48641;51.676;5.808;2022-08-20T08:05:24;24.10;63.10
62583;DHT22;48641;51.676;5.808;2022-08-20T08:07:50;24.10;63.20
62583;DHT22;48641;51.676;5.808;2022-08-20T08:10:19;24.20;63.90
62583;DHT22;48641;51.676;5.808;2022-08-20T08:12:50;24.20;64.70
62583;DHT22;48641;51.676;5.808;2022-08-20T08:15:21;24.20;64.40
62583;DHT22;48641;51.676;5.808;2022-08-20T08:17:49;24.20;64.30
62583;DHT22;48641;51.676;5.808;2022-08-20T08:20:15;24.20;63.90
62583;DHT22;48641;51.676;5.808;2022-08-20T08:22:41;24.20;63.70
62583;DHT22;48641;51.676;5.808;2022-08-20T08:25:12;24.20;63.40
62583;DHT22;48641;51.676;5.808;2022-08-20T08:27:40;24.20;63.40
62583;DHT22;48641;51.676;5.808;2022-08-20T08:30:07;24.20;63.30
62583;DHT22;48641;51.676;5.808;2022-08-20T08:32:35;24.20;63.00
62583;DHT22;48641;51.676;5.808;2022-08-20T08:35:05;24.20;63.50
62583;DHT22;48641;51.676;5.808;2022-08-20T08:37:34;24.20;63.20
62583;DHT22;48641;51.676;5.808;2022-08-20T08:39:59;24.20;64.50
62583;DHT22;48641;51.676;5.808;2022-08-20T08:42:34;24.30;63.80
62583;DHT22;48641;51.676;5.808;2022-08-20T08:45:01;24.30;63.80
62583;DHT22;48641;51.676;5.808;2022-08-20T08:47:34;24.30;63.90
62583;DHT22;48641;51.676;5.808;2022-08-20T08:50:04;24.30;63.80
62583;DHT22;48641;51.676;5.808;2022-08-20T08:52:34;24.30;63.70
62583;DHT22;48641;51.676;5.808;2022-08-20T08:55:03;24.30;63.10
62583;DHT22;48641;51.676;5.808;2022-08-20T08:57:30;24.30;62.70
62583;DHT22;48641;51.676;5.808;2022-08-20T08:59:59;24.40;62.20
62583;DHT22;48641;51.676;5.808;2022-08-20T09:02:27;24.40;61.70
62583;DHT22;48641;51.676;5.808;2022-08-20T09:04:55;24.40;61.40
62583;DHT22;48641;51.676;5.808;2022-08-20T09:07:25;24.40;61.10
62583;DHT22;48641;51.676;5.808;2022-08-20T09:09:51;24.30;61.00
62583;DHT22;48641;51.676;5.808;2022-08-20T09:12:23;24.30;60.90
62583;DHT22;48641;51.676;5.808;2022-08-20T09:14:50;24.30;60.60
62583;DHT22;48641;51.676;5.808;2022-08-20T09:17:18;24.30;60.60
62583;DHT22;48641;51.676;5.808;2022-08-20T09:19:44;24.30;60.30
62583;DHT22;48641;51.676;5.808;2022-08-20T09:22:13;24.20;60.10
62583;DHT22;48641;51.676;5.808;2022-08-20T09:24:39;24.20;59.90
62583;DHT22;48641;51.676;5.808;2022-08-20T09:27:05;24.20;59.60
62583;DHT22;48641;51.676;5.808;2022-08-20T09:29:31;24.20;59.60
62583;DHT22;48641;51.676;5.808;2022-08-20T09:32:17;24.20;59.30
62583;DHT22;48641;51.676;5.808;2022-08-20T09:34:46;24.20;59.20
62583;DHT22;48641;51.676;5.808;2022-08-20T09:37:13;24.20;59.10
62583;DHT22;48641;51.676;5.808;2022-08-20T09:39:39;24.20;58.90
62583;DHT22;48641;51.676;5.808;2022-08-20T09:42:07;24.10;58.70
62583;DHT22;48641;51.676;5.808;2022-08-20T09:44:33;24.10;58.60
62583;DHT22;48641;51.676;5.808;2022-08-20T09:46:58;24.10;58.60
62583;DHT22;48641;51.676;5.808;2022-08-20T09:49:24;24.10;58.30
62583;DHT22;48641;51.676;5.808;2022-08-20T09:51:49;24.10;57.10
62583;DHT22;48641;51.676;5.808;2022-08-20T09:54:15;24.10;57.30
62583;DHT22;48641;51.676;5.808;2022-08-20T09:56:41;24.10;57.20
62583;DHT22;48641;51.676;5.808;2022-08-20T09:59:06;24.10;56.80
62583;DHT22;48641;51.676;5.808;2022-08-20T10:01:32;24.10;56.30
62583;DHT22;48641;51.676;5.808;2022-08-20T10:03:58;24.00;56.60
62583;DHT22;48641;51.676;5.808;2022-08-20T10:06:23;24.00;56.90
62583;DHT22;48641;51.676;5.808;2022-08-20T10:08:49;24.00;57.30
62583;DHT22;48641;51.676;5.808;2022-08-20T10:11:15;24.00;57.60
62583;DHT22;48641;51.676;5.808;2022-08-20T10:13:41;24.10;57.90
62583;DHT22;48641;51.676;5.808;2022-08-20T10:16:06;24.10;57.90
62583;DHT22;48641;51.676;5.808;2022-08-20T10:18:33;24.10;58.10
62583;DHT22;48641;51.676;5.808;2022-08-20T10:20:59;24.10;57.90
62583;DHT22;48641;51.676;5.808;2022-08-20T10:23:25;24.10;57.80
62583;DHT22;48641;51.676;5.808;2022-08-20T10:25:50;24.10;57.80
62583;DHT22;48641;51.676;5.808;2022-08-20T10:28:16;24.10;57.50
62583;DHT22;48641;51.676;5.808;2022-08-20T10:30:41;24.10;57.10
62583;DHT22;48641;51.676;5.808;2022-08-20T10:33:09;24.20;56.70
62583;DHT22;48641;51.676;5.808;2022-08-20T10:35:35;24.20;55.90
62583;DHT22;48641;51.676;5.808;2022-08-20T10:38:00;24.10;55.50
62583;DHT22;48641;51.676;5.808;2022-08-20T10:40:26;24.10;55.00
62583;DHT22;48641;51.676;5.808;2022-08-20T10:42:52;24.20;54.40
62583;DHT22;48641;51.676;5.808;2022-08-20T10:45:17;24.10;54.50
62583;DHT22;48641;51.676;5.808;2022-08-20T10:47:43;24.20;54.60
62583;DHT22;48641;51.676;5.808;2022-08-20T10:50:13;24.20;54.60
62583;DHT22;48641;51.676;5.808;2022-08-20T10:52:39;24.20;54.70
62583;DHT22;48641;51.676;5.808;2022-08-20T10:55:05;24.20;54.50
62583;DHT22;48641;51.676;5.808;2022-08-20T10:57:31;24.20;53.70
62583;DHT22;48641;51.676;5.808;2022-08-20T10:59:58;24.20;53.40
62583;DHT22;48641;51.676;5.808;2022-08-20T11:02:25;24.20;53.10
62583;DHT22;48641;51.676;5.808;2022-08-20T11:04:51;24.20;52.60
62583;DHT22;48641;51.676;5.808;2022-08-20T11:07:34;24.20;52.40
62583;DHT22;48641;51.676;5.808;2022-08-20T11:10:00;24.30;52.30
62583;DHT22;48641;51.676;5.808;2022-08-20T11:12:26;24.20;52.80
62583;DHT22;48641;51.676;5.808;2022-08-20T11:14:53;24.30;53.10
62583;DHT22;48641;51.676;5.808;2022-08-20T11:17:25;24.30;53.40
62583;DHT22;48641;51.676;5.808;2022-08-20T11:19:51;24.30;53.60
62583;DHT22;48641;51.676;5.808;2022-08-20T11:22:18;24.40;53.80
62583;DHT22;48641;51.676;5.808;2022-08-20T11:24:43;24.40;54.00
62583;DHT22;48641;51.676;5.808;2022-08-20T11:27:09;24.40;54.30
62583;DHT22;48641;51.676;5.808;2022-08-20T11:29:36;24.40;54.30
62583;DHT22;48641;51.676;5.808;2022-08-20T11:32:04;24.40;54.30
62583;DHT22;48641;51.676;5.808;2022-08-20T11:34:30;24.40;54.40
62583;DHT22;48641;51.676;5.808;2022-08-20T11:36:56;24.40;54.50
62583;DHT22;48641;51.676;5.808;2022-08-20T11:39:23;24.50;54.50
62583;DHT22;48641;51.676;5.808;2022-08-20T11:41:49;24.50;54.70
62583;DHT22;48641;51.676;5.808;2022-08-20T11:44:15;24.50;54.80
62583;DHT22;48641;51.676;5.808;2022-08-20T11:46:40;24.50;54.90
62583;DHT22;48641;51.676;5.808;2022-08-20T11:49:06;24.50;54.80
62583;DHT22;48641;51.676;5.808;2022-08-20T11:51:32;24.50;54.80
62583;DHT22;48641;51.676;5.808;2022-08-20T11:53:57;24.50;54.90
62583;DHT22;48641;51.676;5.808;2022-08-20T11:56:23;24.50;55.00
62583;DHT22;48641;51.676;5.808;2022-08-20T11:58:49;24.50;55.20
62583;DHT22;48641;51.676;5.808;2022-08-20T12:01:14;24.50;55.20
62583;DHT22;48641;51.676;5.808;2022-08-20T12:03:40;24.50;55.10
62583;DHT22;48641;51.676;5.808;2022-08-20T12:06:05;24.60;55.10
62583;DHT22;48641;51.676;5.808;2022-08-20T12:08:31;24.60;55.10
62583;DHT22;48641;51.676;5.808;2022-08-20T12:10:59;24.70;55.20
62583;DHT22;48641;51.676;5.808;2022-08-20T12:13:26;24.60;55.10
62583;DHT22;48641;51.676;5.808;2022-08-20T12:15:53;24.70;55.10
62583;DHT22;48641;51.676;5.808;2022-08-20T12:18:19;24.70;55.00
62583;DHT22;48641;51.676;5.808;2022-08-20T12:20:44;24.70;54.80
62583;DHT22;48641;51.676;5.808;2022-08-20T12:23:10;24.70;54.80
62583;DHT22;48641;51.676;5.808;2022-08-20T12:25:36;24.80;54.80
62583;DHT22;48641;51.676;5.808;2022-08-20T12:28:02;24.80;54.80
62583;DHT22;48641;51.676;5.808;2022-08-20T12:30:30;24.80;54.70
62583;DHT22;48641;51.676;5.808;2022-08-20T12:32:56;24.80;54.60
62583;DHT22;48641;51.676;5.808;2022-08-20T12:35:22;24.80;54.40
62583;DHT22;48641;51.676;5.808;2022-08-20T12:37:48;24.90;54.50
62583;DHT22;48641;51.676;5.808;2022-08-20T12:40:18;24.90;54.50
62583;DHT22;48641;51.676;5.808;2022-08-20T12:42:45;24.90;54.50
62583;DHT22;48641;51.676;5.808;2022-08-20T12:45:11;24.90;54.60
62583;DHT22;48641;51.676;5.808;2022-08-20T12:47:39;25.00;54.60
62583;DHT22;48641;51.676;5.808;2022-08-20T12:50:12;25.00;54.50
62583;DHT22;48641;51.676;5.808;2022-08-20T12:52:38;25.00;54.40
62583;DHT22;48641;51.676;5.808;2022-08-20T12:55:05;25.00;54.40
62583;DHT22;48641;51.676;5.808;2022-08-20T12:57:35;25.10;54.40
62583;DHT22;48641;51.676;5.808;2022-08-20T13:00:13;25.10;54.30
62583;DHT22;48641;51.676;5.808;2022-08-20T13:02:40;25.10;54.20
62583;DHT22;48641;51.676;5.808;2022-08-20T13:05:07;25.10;54.40
62583;DHT22;48641;51.676;5.808;2022-08-20T13:07:34;25.10;54.30
62583;DHT22;48641;51.676;5.808;2022-08-20T13:10:00;25.10;54.20
62583;DHT22;48641;51.676;5.808;2022-08-20T13:12:27;25.10;54.10
62583;DHT22;48641;51.676;5.808;2022-08-20T13:14:52;25.20;54.30
62583;DHT22;48641;51.676;5.808;2022-08-20T13:17:18;25.20;54.30
62583;DHT22;48641;51.676;5.808;2022-08-20T13:19:44;25.20;54.20
62583;DHT22;48641;51.676;5.808;2022-08-20T13:22:11;25.20;54.10
62583;DHT22;48641;51.676;5.808;2022-08-20T13:24:37;25.20;54.10
62583;DHT22;48641;51.676;5.808;2022-08-20T13:27:11;25.20;54.00
62583;DHT22;48641;51.676;5.808;2022-08-20T13:29:38;25.20;54.00
62583;DHT22;48641;51.676;5.808;2022-08-20T13:32:09;25.20;53.90
62583;DHT22;48641;51.676;5.808;2022-08-20T13:34:35;25.20;53.70
62583;DHT22;48641;51.676;5.808;2022-08-20T13:37:00;25.20;53.60
62583;DHT22;48641;51.676;5.808;2022-08-20T13:39:26;25.30;53.70
62583;DHT22;48641;51.676;5.808;2022-08-20T13:41:51;25.30;53.70
62583;DHT22;48641;51.676;5.808;2022-08-20T13:44:17;25.30;53.70
62583;DHT22;48641;51.676;5.808;2022-08-20T13:46:42;25.30;53.70
62583;DHT22;48641;51.676;5.808;2022-08-20T13:49:08;25.30;53.70
62583;DHT22;48641;51.676;5.808;2022-08-20T13:51:33;25.30;53.70
62583;DHT22;48641;51.676;5.808;2022-08-20T13:53:59;25.30;53.70
62583;DHT22;48641;51.676;5.808;2022-08-20T13:56:24;25.30;53.70
62583;DHT22;48641;51.676;5.808;2022-08-20T13:58:50;25.40;53.80
62583;DHT22;48641;51.676;5.808;2022-08-20T14:01:16;25.30;53.60
62583;DHT22;48641;51.676;5.808;2022-08-20T14:03:41;25.40;53.70
62583;DHT22;48641;51.676;5.808;2022-08-20T14:06:07;25.40;53.60
62583;DHT22;48641;51.676;5.808;2022-08-20T14:08:34;25.40;53.50
62583;DHT22;48641;51.676;5.808;2022-08-20T14:11:01;25.40;53.40
62583;DHT22;48641;51.676;5.808;2022-08-20T14:13:26;25.40;53.30
62583;DHT22;48641;51.676;5.808;2022-08-20T14:15:53;25.40;53.20
62583;DHT22;48641;51.676;5.808;2022-08-20T14:18:19;25.40;53.00
62583;DHT22;48641;51.676;5.808;2022-08-20T14:20:45;25.40;53.00
62583;DHT22;48641;51.676;5.808;2022-08-20T14:23:10;25.40;53.00
62583;DHT22;48641;51.676;5.808;2022-08-20T14:25:36;25.40;53.10
62583;DHT22;48641;51.676;5.808;2022-08-20T14:28:13;25.50;53.30
62583;DHT22;48641;51.676;5.808;2022-08-20T14:30:39;25.50;53.30
62583;DHT22;48641;51.676;5.808;2022-08-20T14:33:05;25.50;53.40
62583;DHT22;48641;51.676;5.808;2022-08-20T14:35:31;25.50;53.30
62583;DHT22;48641;51.676;5.808;2022-08-20T14:37:56;25.50;53.30
62583;DHT22;48641;51.676;5.808;2022-08-20T14:40:24;25.50;53.20
62583;DHT22;48641;51.676;5.808;2022-08-20T14:42:50;25.50;53.10
62583;DHT22;48641;51.676;5.808;2022-08-20T14:45:16;25.50;53.10
62583;DHT22;48641;51.676;5.808;2022-08-20T14:47:46;25.50;53.10
62583;DHT22;48641;51.676;5.808;2022-08-20T14:50:16;25.50;53.10
62583;DHT22;48641;51.676;5.808;2022-08-20T14:52:43;25.50;53.10
62583;DHT22;48641;51.676;5.808;2022-08-20T14:55:14;25.50;53.10
62583;DHT22;48641;51.676;5.808;2022-08-20T14:57:41;25.50;53.00
62583;DHT22;48641;51.676;5.808;2022-08-20T15:00:10;25.50;53.10
62583;DHT22;48641;51.676;5.808;2022-08-20T15:02:37;25.50;53.10
62583;DHT22;48641;51.676;5.808;2022-08-20T15:05:04;25.50;53.10
62583;DHT22;48641;51.676;5.808;2022-08-20T15:07:32;25.50;53.00
62583;DHT22;48641;51.676;5.808;2022-08-20T15:09:59;25.50;52.90
62583;DHT22;48641;51.676;5.808;2022-08-20T15:12:25;25.50;53.00
62583;DHT22;48641;51.676;5.808;2022-08-20T15:14:51;25.50;53.10
62583;DHT22;48641;51.676;5.808;2022-08-20T15:17:20;25.50;53.10
62583;DHT22;48641;51.676;5.808;2022-08-20T15:19:46;25.50;53.10
62583;DHT22;48641;51.676;5.808;2022-08-20T15:22:11;25.50;53.30
62583;DHT22;48641;51.676;5.808;2022-08-20T15:24:37;25.50;53.10
62583;DHT22;48641;51.676;5.808;2022-08-20T15:27:18;25.50;53.10
62583;DHT22;48641;51.676;5.808;2022-08-20T15:29:44;25.50;53.10
62583;DHT22;48641;51.676;5.808;2022-08-20T15:32:10;25.50;53.10
62583;DHT22;48641;51.676;5.808;2022-08-20T15:34:36;25.50;53.10
62583;DHT22;48641;51.676;5.808;2022-08-20T15:37:08;25.50;53.20